sensor_id;sensor_type;location;lat;lon;timestamp;P1;durP1;ratioP1;P2;durP2;ratioP2
4057;SDS011;2044;48.692;9.020;2023-02-26T00:01:01;2.47;;;2.27;;
4057;SDS011;2044;48.692;9.020;2023-02-26T00:03:28;2.40;;;1.77;;
4057;SDS011;2044;48.692;9.020;2023-02-26T00:05:58;2.23;;;1.40;;
4057;SDS011;2044;48.692;9.020;2023-02-26T00:08:25;1.73;;;1.17;;
4057;SDS011;2044;48.692;9.020;2023-02-26T00:10:51;3.80;;;1.90;;
4057;SDS011;2044;48.692;9.020;2023-02-26T00:13:19;1.33;;;1.23;;
4057;SDS011;2044;48.692;9.020;2023-02-26T00:15:46;1.50;;;1.40;;
4057;SDS011;2044;48.692;9.020;2023-02-26T00:18:14;1.87;;;1.77;;
4057;SDS011;2044;48.692;9.020;2023-02-26T00:20:41;1.60;;;1.50;;
4057;SDS011;2044;48.692;9.020;2023-02-26T00:23:09;2.13;;;1.70;;
4057;SDS011;2044;48.692;9.020;2023-02-26T00:25:38;1.53;;;1.43;;
4057;SDS011;2044;48.692;9.020;2023-02-26T00:28:05;1.20;;;1.07;;
4057;SDS011;2044;48.692;9.020;2023-02-26T00:30:32;1.47;;;1.37;;
4057;SDS011;2044;48.692;9.020;2023-02-26T00:33:00;5.33;;;1.77;;
4057;SDS011;2044;48.692;9.020;2023-02-26T00:35:30;1.30;;;1.20;;
4057;SDS011;2044;48.692;9.020;2023-02-26T00:37:58;1.67;;;1.33;;
4057;SDS011;2044;48.692;9.020;2023-02-26T00:40:28;1.60;;;1.40;;
4057;SDS011;2044;48.692;9.020;2023-02-26T00:43:01;2.27;;;2.07;;
4057;SDS011;2044;48.692;9.020;2023-02-26T00:45:29;1.67;;;1.53;;
4057;SDS011;2044;48.692;9.020;2023-02-26T00:48:00;6.63;;;1.33;;
4057;SDS011;2044;48.692;9.020;2023-02-26T00:50:46;3.50;;;1.80;;
4057;SDS011;2044;48.692;9.020;2023-02-26T00:53:21;3.13;;;1.70;;
4057;SDS011;2044;48.692;9.020;2023-02-26T00:55:52;1.57;;;1.47;;
4057;SDS011;2044;48.692;9.020;2023-02-26T00:58:19;1.67;;;1.33;;
4057;SDS011;2044;48.692;9.020;2023-02-26T01:00:45;1.20;;;1.10;;
4057;SDS011;2044;48.692;9.020;2023-02-26T01:03:12;1.30;;;1.20;;
4057;SDS011;2044;48.692;9.020;2023-02-26T01:05:39;3.83;;;2.23;;
4057;SDS011;2044;48.692;9.020;2023-02-26T01:08:11;4.60;;;2.00;;
4057;SDS011;2044;48.692;9.020;2023-02-26T01:10:42;1.47;;;1.37;;
4057;SDS011;2044;48.692;9.020;2023-02-26T01:13:09;4.87;;;3.53;;
4057;SDS011;2044;48.692;9.020;2023-02-26T01:15:38;2.30;;;1.87;;
4057;SDS011;2044;48.692;9.020;2023-02-26T01:18:08;1.80;;;1.70;;
4057;SDS011;2044;48.692;9.020;2023-02-26T01:20:39;2.23;;;1.43;;
4057;SDS011;2044;48.692;9.020;2023-02-26T01:23:12;1.67;;;1.37;;
4057;SDS011;2044;48.692;9.020;2023-02-26T01:25:41;1.17;;;1.10;;
4057;SDS011;2044;48.692;9.020;2023-02-26T01:28:13;2.00;;;1.73;;
4057;SDS011;2044;48.692;9.020;2023-02-26T01:30:41;2.10;;;1.50;;
4057;SDS011;2044;48.692;9.020;2023-02-26T01:33:12;1.43;;;1.33;;
4057;SDS011;2044;48.692;9.020;2023-02-26T01:35:46;1.27;;;1.17;;
4057;SDS011;2044;48.692;9.020;2023-02-26T01:38:19;2.10;;;1.87;;
4057;SDS011;2044;48.692;9.020;2023-02-26T01:41:01;1.20;;;1.20;;
4057;SDS011;2044;48.692;9.020;2023-02-26T01:43:44;1.40;;;1.13;;
4057;SDS011;2044;48.692;9.020;2023-02-26T01:46:17;1.43;;;1.33;;
4057;SDS011;2044;48.692;9.020;2023-02-26T01:48:51;1.30;;;1.20;;
4057;SDS011;2044;48.692;9.020;2023-02-26T01:54:08;1.80;;;1.70;;
4057;SDS011;2044;48.692;9.020;2023-02-26T01:56:35;1.80;;;1.70;;
4057;SDS011;2044;48.692;9.020;2023-02-26T01:59:03;1.80;;;1.47;;
4057;SDS011;2044;48.692;9.020;2023-02-26T02:01:32;3.03;;;1.30;;
4057;SDS011;2044;48.692;9.020;2023-02-26T02:03:59;3.33;;;1.33;;
4057;SDS011;2044;48.692;9.020;2023-02-26T02:06:26;1.40;;;1.30;;
4057;SDS011;2044;48.692;9.020;2023-02-26T02:08:54;5.33;;;1.73;;
4057;SDS011;2044;48.692;9.020;2023-02-26T02:11:23;1.73;;;1.63;;
4057;SDS011;2044;48.692;9.020;2023-02-26T02:13:59;1.67;;;1.20;;
4057;SDS011;2044;48.692;9.020;2023-02-26T02:16:36;1.87;;;1.03;;
4057;SDS011;2044;48.692;9.020;2023-02-26T02:22:12;3.50;;;2.03;;
4057;SDS011;2044;48.692;9.020;2023-02-26T02:24:48;1.27;;;1.20;;
4057;SDS011;2044;48.692;9.020;2023-02-26T02:27:29;1.40;;;1.30;;
4057;SDS011;2044;48.692;9.020;2023-02-26T02:30:06;3.70;;;1.20;;
4057;SDS011;2044;48.692;9.020;2023-02-26T02:32:48;1.70;;;1.60;;
4057;SDS011;2044;48.692;9.020;2023-02-26T02:35:19;4.50;;;1.43;;
4057;SDS011;2044;48.692;9.020;2023-02-26T02:37:50;2.07;;;1.70;;
4057;SDS011;2044;48.692;9.020;2023-02-26T02:40:22;3.23;;;2.27;;
4057;SDS011;2044;48.692;9.020;2023-02-26T02:42:54;1.53;;;1.43;;
4057;SDS011;2044;48.692;9.020;2023-02-26T02:45:25;2.07;;;1.50;;
4057;SDS011;2044;48.692;9.020;2023-02-26T02:47:58;2.67;;;1.07;;
4057;SDS011;2044;48.692;9.020;2023-02-26T02:50:29;1.43;;;1.37;;
4057;SDS011;2044;48.692;9.020;2023-02-26T02:53:00;2.90;;;1.83;;
4057;SDS011;2044;48.692;9.020;2023-02-26T02:55:30;3.63;;;1.10;;
4057;SDS011;2044;48.692;9.020;2023-02-26T02:58:02;1.47;;;1.13;;
4057;SDS011;2044;48.692;9.020;2023-02-26T03:00:32;1.50;;;1.40;;
4057;SDS011;2044;48.692;9.020;2023-02-26T03:03:05;5.40;;;1.90;;
4057;SDS011;2044;48.692;9.020;2023-02-26T03:05:38;2.20;;;1.40;;
4057;SDS011;2044;48.692;9.020;2023-02-26T03:08:07;2.83;;;1.40;;
4057;SDS011;2044;48.692;9.020;2023-02-26T03:10:37;1.10;;;1.10;;
4057;SDS011;2044;48.692;9.020;2023-02-26T03:13:04;1.40;;;1.30;;
4057;SDS011;2044;48.692;9.020;2023-02-26T03:15:34;1.73;;;1.63;;
4057;SDS011;2044;48.692;9.020;2023-02-26T03:18:08;3.40;;;2.13;;
4057;SDS011;2044;48.692;9.020;2023-02-26T03:20:45;1.23;;;1.23;;
4057;SDS011;2044;48.692;9.020;2023-02-26T03:23:21;1.37;;;1.27;;
4057;SDS011;2044;48.692;9.020;2023-02-26T03:25:53;1.97;;;1.60;;
4057;SDS011;2044;48.692;9.020;2023-02-26T03:28:28;2.80;;;1.40;;
4057;SDS011;2044;48.692;9.020;2023-02-26T03:31:01;4.60;;;2.13;;
4057;SDS011;2044;48.692;9.020;2023-02-26T03:33:36;1.10;;;1.00;;
4057;SDS011;2044;48.692;9.020;2023-02-26T03:36:08;1.57;;;1.10;;
4057;SDS011;2044;48.692;9.020;2023-02-26T03:38:40;1.53;;;1.27;;
4057;SDS011;2044;48.692;9.020;2023-02-26T03:41:12;2.70;;;1.43;;
4057;SDS011;2044;48.692;9.020;2023-02-26T03:43:43;1.50;;;1.40;;
4057;SDS011;2044;48.692;9.020;2023-02-26T03:46:15;2.40;;;1.33;;
4057;SDS011;2044;48.692;9.020;2023-02-26T03:48:48;3.77;;;1.40;;
4057;SDS011;2044;48.692;9.020;2023-02-26T03:51:17;1.20;;;1.20;;
4057;SDS011;2044;48.692;9.020;2023-02-26T03:53:46;1.97;;;1.30;;
4057;SDS011;2044;48.692;9.020;2023-02-26T03:56:16;2.27;;;1.93;;
4057;SDS011;2044;48.692;9.020;2023-02-26T03:58:46;2.50;;;1.63;;
4057;SDS011;2044;48.692;9.020;2023-02-26T04:01:14;6.30;;;1.73;;
4057;SDS011;2044;48.692;9.020;2023-02-26T04:03:48;1.47;;;1.20;;
4057;SDS011;2044;48.692;9.020;2023-02-26T04:06:18;2.20;;;1.30;;
4057;SDS011;2044;48.692;9.020;2023-02-26T04:08:46;9.77;;;2.10;;
4057;SDS011;2044;48.692;9.020;2023-02-26T04:11:14;1.97;;;1.37;;
4057;SDS011;2044;48.692;9.020;2023-02-26T04:13:43;3.77;;;1.93;;
4057;SDS011;2044;48.692;9.020;2023-02-26T04:16:11;2.30;;;1.10;;
4057;SDS011;2044;48.692;9.020;2023-02-26T04:18:38;2.97;;;1.50;;
4057;SDS011;2044;48.692;9.020;2023-02-26T04:21:09;1.70;;;1.60;;
4057;SDS011;2044;48.692;9.020;2023-02-26T04:23:36;3.20;;;1.50;;
4057;SDS011;2044;48.692;9.020;2023-02-26T04:26:03;2.83;;;1.90;;
4057;SDS011;2044;48.692;9.020;2023-02-26T04:28:30;2.40;;;1.80;;
4057;SDS011;2044;48.692;9.020;2023-02-26T04:30:57;1.93;;;1.20;;
4057;SDS011;2044;48.692;9.020;2023-02-26T04:33:24;0.70;;;0.70;;
4057;SDS011;2044;48.692;9.020;2023-02-26T04:35:51;5.13;;;1.63;;
4057;SDS011;2044;48.692;9.020;2023-02-26T04:38:19;1.40;;;1.30;;
4057;SDS011;2044;48.692;9.020;2023-02-26T04:40:47;4.80;;;1.20;;
4057;SDS011;2044;48.692;9.020;2023-02-26T04:43:14;3.03;;;1.80;;
4057;SDS011;2044;48.692;9.020;2023-02-26T04:45:41;1.33;;;0.90;;
4057;SDS011;2044;48.692;9.020;2023-02-26T04:48:10;1.83;;;1.27;;
4057;SDS011;2044;48.692;9.020;2023-02-26T04:50:37;5.47;;;1.30;;
4057;SDS011;2044;48.692;9.020;2023-02-26T04:53:04;2.27;;;1.40;;
4057;SDS011;2044;48.692;9.020;2023-02-26T04:55:32;0.97;;;0.97;;
4057;SDS011;2044;48.692;9.020;2023-02-26T04:57:58;1.53;;;1.40;;
4057;SDS011;2044;48.692;9.020;2023-02-26T05:00:25;1.93;;;1.23;;
4057;SDS011;2044;48.692;9.020;2023-02-26T05:02:52;1.57;;;1.47;;
4057;SDS011;2044;48.692;9.020;2023-02-26T05:05:18;1.80;;;1.70;;
4057;SDS011;2044;48.692;9.020;2023-02-26T05:07:45;3.40;;;1.87;;
4057;SDS011;2044;48.692;9.020;2023-02-26T05:10:12;1.80;;;1.70;;
4057;SDS011;2044;48.692;9.020;2023-02-26T05:12:40;2.63;;;1.43;;
4057;SDS011;2044;48.692;9.020;2023-02-26T05:15:07;2.53;;;1.33;;
4057;SDS011;2044;48.692;9.020;2023-02-26T05:17:34;2.10;;;1.63;;
4057;SDS011;2044;48.692;9.020;2023-02-26T05:20:01;9.70;;;1.73;;
4057;SDS011;2044;48.692;9.020;2023-02-26T05:22:28;6.13;;;2.00;;
4057;SDS011;2044;48.692;9.020;2023-02-26T05:24:55;4.10;;;1.03;;
4057;SDS011;2044;48.692;9.020;2023-02-26T05:27:21;2.93;;;0.90;;
4057;SDS011;2044;48.692;9.020;2023-02-26T05:29:49;13.83;;;2.00;;
4057;SDS011;2044;48.692;9.020;2023-02-26T05:32:16;1.83;;;1.60;;
4057;SDS011;2044;48.692;9.020;2023-02-26T05:34:43;1.13;;;1.10;;
4057;SDS011;2044;48.692;9.020;2023-02-26T05:37:09;2.50;;;1.40;;
4057;SDS011;2044;48.692;9.020;2023-02-26T05:39:36;2.23;;;1.50;;
4057;SDS011;2044;48.692;9.020;2023-02-26T05:42:05;1.67;;;1.57;;
4057;SDS011;2044;48.692;9.020;2023-02-26T05:44:31;3.50;;;1.50;;
4057;SDS011;2044;48.692;9.020;2023-02-26T05:47:00;3.30;;;1.70;;
4057;SDS011;2044;48.692;9.020;2023-02-26T05:49:27;3.03;;;1.30;;
4057;SDS011;2044;48.692;9.020;2023-02-26T05:51:54;3.43;;;1.37;;
4057;SDS011;2044;48.692;9.020;2023-02-26T05:54:21;2.90;;;1.43;;
4057;SDS011;2044;48.692;9.020;2023-02-26T05:56:48;2.90;;;1.57;;
4057;SDS011;2044;48.692;9.020;2023-02-26T05:59:15;2.50;;;1.40;;
4057;SDS011;2044;48.692;9.020;2023-02-26T06:01:42;1.07;;;1.07;;
4057;SDS011;2044;48.692;9.020;2023-02-26T06:04:10;2.30;;;1.60;;
4057;SDS011;2044;48.692;9.020;2023-02-26T06:06:37;2.93;;;1.63;;
4057;SDS011;2044;48.692;9.020;2023-02-26T06:09:03;1.17;;;1.07;;
4057;SDS011;2044;48.692;9.020;2023-02-26T06:11:30;1.40;;;1.30;;
4057;SDS011;2044;48.692;9.020;2023-02-26T06:13:58;1.17;;;1.17;;
4057;SDS011;2044;48.692;9.020;2023-02-26T06:16:25;6.13;;;1.67;;
4057;SDS011;2044;48.692;9.020;2023-02-26T06:18:52;2.50;;;1.30;;
4057;SDS011;2044;48.692;9.020;2023-02-26T06:21:20;4.20;;;1.50;;
4057;SDS011;2044;48.692;9.020;2023-02-26T06:23:46;4.50;;;2.20;;
4057;SDS011;2044;48.692;9.020;2023-02-26T06:26:13;2.77;;;1.40;;
4057;SDS011;2044;48.692;9.020;2023-02-26T06:28:40;0.83;;;0.83;;
4057;SDS011;2044;48.692;9.020;2023-02-26T06:31:06;2.80;;;2.50;;
4057;SDS011;2044;48.692;9.020;2023-02-26T06:33:33;2.33;;;1.80;;
4057;SDS011;2044;48.692;9.020;2023-02-26T06:36:00;3.07;;;1.60;;
4057;SDS011;2044;48.692;9.020;2023-02-26T06:38:28;1.53;;;1.37;;
4057;SDS011;2044;48.692;9.020;2023-02-26T06:40:55;1.40;;;1.20;;
4057;SDS011;2044;48.692;9.020;2023-02-26T06:43:22;1.93;;;1.60;;
4057;SDS011;2044;48.692;9.020;2023-02-26T06:45:48;1.70;;;1.43;;
4057;SDS011;2044;48.692;9.020;2023-02-26T06:48:15;1.53;;;1.43;;
4057;SDS011;2044;48.692;9.020;2023-02-26T06:50:42;1.37;;;1.23;;
4057;SDS011;2044;48.692;9.020;2023-02-26T06:53:09;6.90;;;2.93;;
4057;SDS011;2044;48.692;9.020;2023-02-26T06:55:40;2.83;;;1.93;;
4057;SDS011;2044;48.692;9.020;2023-02-26T06:58:08;3.30;;;1.87;;
4057;SDS011;2044;48.692;9.020;2023-02-26T07:00:35;2.03;;;1.87;;
4057;SDS011;2044;48.692;9.020;2023-02-26T07:03:02;1.27;;;1.17;;
4057;SDS011;2044;48.692;9.020;2023-02-26T07:05:29;2.53;;;2.33;;
4057;SDS011;2044;48.692;9.020;2023-02-26T07:07:56;3.73;;;1.37;;
4057;SDS011;2044;48.692;9.020;2023-02-26T07:10:22;4.97;;;1.63;;
4057;SDS011;2044;48.692;9.020;2023-02-26T07:12:51;2.20;;;1.77;;
4057;SDS011;2044;48.692;9.020;2023-02-26T07:15:18;2.60;;;1.37;;
4057;SDS011;2044;48.692;9.020;2023-02-26T07:17:44;2.73;;;1.67;;
4057;SDS011;2044;48.692;9.020;2023-02-26T07:20:11;2.20;;;2.03;;
4057;SDS011;2044;48.692;9.020;2023-02-26T07:22:38;2.00;;;1.80;;
4057;SDS011;2044;48.692;9.020;2023-02-26T07:25:05;1.30;;;1.20;;
4057;SDS011;2044;48.692;9.020;2023-02-26T07:27:32;1.77;;;1.63;;
4057;SDS011;2044;48.692;9.020;2023-02-26T07:30:00;6.27;;;2.43;;
4057;SDS011;2044;48.692;9.020;2023-02-26T07:32:28;10.30;;;2.40;;
4057;SDS011;2044;48.692;9.020;2023-02-26T07:34:55;12.73;;;3.40;;
4057;SDS011;2044;48.692;9.020;2023-02-26T07:37:21;1.40;;;1.30;;
4057;SDS011;2044;48.692;9.020;2023-02-26T07:39:48;9.07;;;2.03;;
4057;SDS011;2044;48.692;9.020;2023-02-26T07:42:15;5.83;;;1.60;;
4057;SDS011;2044;48.692;9.020;2023-02-26T07:44:42;1.73;;;1.37;;
4057;SDS011;2044;48.692;9.020;2023-02-26T07:47:11;1.50;;;1.40;;
4057;SDS011;2044;48.692;9.020;2023-02-26T07:49:38;1.53;;;1.43;;
4057;SDS011;2044;48.692;9.020;2023-02-26T07:52:04;1.93;;;1.60;;
4057;SDS011;2044;48.692;9.020;2023-02-26T07:54:32;3.00;;;1.77;;
4057;SDS011;2044;48.692;9.020;2023-02-26T07:56:58;1.67;;;1.53;;
4057;SDS011;2044;48.692;9.020;2023-02-26T07:59:25;3.67;;;2.20;;
4057;SDS011;2044;48.692;9.020;2023-02-26T08:01:52;1.53;;;1.43;;
4057;SDS011;2044;48.692;9.020;2023-02-26T08:04:21;7.10;;;2.50;;
4057;SDS011;2044;48.692;9.020;2023-02-26T08:06:48;1.93;;;1.50;;
4057;SDS011;2044;48.692;9.020;2023-02-26T08:09:14;3.77;;;2.30;;
4057;SDS011;2044;48.692;9.020;2023-02-26T08:11:41;3.00;;;1.73;;
4057;SDS011;2044;48.692;9.020;2023-02-26T08:14:09;7.90;;;2.37;;
4057;SDS011;2044;48.692;9.020;2023-02-26T08:16:36;2.73;;;1.60;;
4057;SDS011;2044;48.692;9.020;2023-02-26T08:19:03;3.60;;;2.43;;
4057;SDS011;2044;48.692;9.020;2023-02-26T08:21:31;2.93;;;2.40;;
4057;SDS011;2044;48.692;9.020;2023-02-26T08:23:57;1.93;;;1.83;;
4057;SDS011;2044;48.692;9.020;2023-02-26T08:26:24;2.03;;;1.00;;
4057;SDS011;2044;48.692;9.020;2023-02-26T08:28:51;3.70;;;0.90;;
4057;SDS011;2044;48.692;9.020;2023-02-26T08:31:18;1.50;;;1.40;;
4057;SDS011;2044;48.692;9.020;2023-02-26T08:33:45;1.73;;;1.20;;
4057;SDS011;2044;48.692;9.020;2023-02-26T08:36:12;2.50;;;1.47;;
4057;SDS011;2044;48.692;9.020;2023-02-26T08:38:40;1.50;;;1.40;;
4057;SDS011;2044;48.692;9.020;2023-02-26T08:41:06;1.10;;;1.10;;
4057;SDS011;2044;48.692;9.020;2023-02-26T08:43:33;1.40;;;1.30;;
4057;SDS011;2044;48.692;9.020;2023-02-26T08:46:00;2.03;;;1.90;;
4057;SDS011;2044;48.692;9.020;2023-02-26T08:48:27;1.53;;;1.43;;
4057;SDS011;2044;48.692;9.020;2023-02-26T08:50:54;2.10;;;2.00;;
4057;SDS011;2044;48.692;9.020;2023-02-26T08:53:20;3.03;;;1.73;;
4057;SDS011;2044;48.692;9.020;2023-02-26T08:55:49;1.60;;;1.50;;
4057;SDS011;2044;48.692;9.020;2023-02-26T08:58:17;2.60;;;1.50;;
4057;SDS011;2044;48.692;9.020;2023-02-26T09:00:44;1.67;;;1.57;;
4057;SDS011;2044;48.692;9.020;2023-02-26T09:03:11;3.07;;;2.27;;
4057;SDS011;2044;48.692;9.020;2023-02-26T09:05:38;2.50;;;1.50;;
4057;SDS011;2044;48.692;9.020;2023-02-26T09:08:05;2.00;;;1.90;;
4057;SDS011;2044;48.692;9.020;2023-02-26T09:10:32;1.90;;;1.77;;
4057;SDS011;2044;48.692;9.020;2023-02-26T09:13:00;2.70;;;2.00;;
4057;SDS011;2044;48.692;9.020;2023-02-26T09:15:26;1.77;;;1.43;;
4057;SDS011;2044;48.692;9.020;2023-02-26T09:17:53;1.97;;;1.87;;
4057;SDS011;2044;48.692;9.020;2023-02-26T09:20:20;1.33;;;1.23;;
4057;SDS011;2044;48.692;9.020;2023-02-26T09:22:47;1.07;;;1.00;;
4057;SDS011;2044;48.692;9.020;2023-02-26T09:25:14;1.87;;;1.30;;
4057;SDS011;2044;48.692;9.020;2023-02-26T09:27:40;1.37;;;1.20;;
4057;SDS011;2044;48.692;9.020;2023-02-26T09:30:10;2.00;;;1.70;;
4057;SDS011;2044;48.692;9.020;2023-02-26T09:32:37;1.27;;;1.17;;
4057;SDS011;2044;48.692;9.020;2023-02-26T09:35:04;1.17;;;1.00;;
4057;SDS011;2044;48.692;9.020;2023-02-26T09:37:31;0.80;;;0.80;;
4057;SDS011;2044;48.692;9.020;2023-02-26T09:39:58;2.50;;;1.80;;
4057;SDS011;2044;48.692;9.020;2023-02-26T09:42:28;2.10;;;2.00;;
4057;SDS011;2044;48.692;9.020;2023-02-26T09:45:04;2.30;;;2.10;;
4057;SDS011;2044;48.692;9.020;2023-02-26T09:47:38;1.47;;;1.33;;
4057;SDS011;2044;48.692;9.020;2023-02-26T09:50:12;0.80;;;0.80;;
4057;SDS011;2044;48.692;9.020;2023-02-26T09:52:44;1.20;;;1.10;;
4057;SDS011;2044;48.692;9.020;2023-02-26T09:55:17;1.37;;;1.27;;
4057;SDS011;2044;48.692;9.020;2023-02-26T09:57:49;3.87;;;1.83;;
4057;SDS011;2044;48.692;9.020;2023-02-26T10:00:21;2.80;;;2.10;;
4057;SDS011;2044;48.692;9.020;2023-02-26T10:02:57;4.27;;;2.10;;
4057;SDS011;2044;48.692;9.020;2023-02-26T10:05:31;2.30;;;1.93;;
4057;SDS011;2044;48.692;9.020;2023-02-26T10:08:05;1.50;;;1.40;;
4057;SDS011;2044;48.692;9.020;2023-02-26T10:10:41;1.80;;;1.70;;
4057;SDS011;2044;48.692;9.020;2023-02-26T10:16:01;1.20;;;1.10;;
4057;SDS011;2044;48.692;9.020;2023-02-26T10:18:35;1.80;;;1.70;;
4057;SDS011;2044;48.692;9.020;2023-02-26T10:21:07;1.40;;;1.30;;
4057;SDS011;2044;48.692;9.020;2023-02-26T10:23:40;3.50;;;1.67;;
4057;SDS011;2044;48.692;9.020;2023-02-26T10:26:11;2.43;;;1.70;;
4057;SDS011;2044;48.692;9.020;2023-02-26T10:28:46;1.50;;;1.50;;
4057;SDS011;2044;48.692;9.020;2023-02-26T10:31:21;3.43;;;2.17;;
4057;SDS011;2044;48.692;9.020;2023-02-26T10:33:56;2.60;;;2.40;;
4057;SDS011;2044;48.692;9.020;2023-02-26T10:36:28;1.47;;;1.37;;
4057;SDS011;2044;48.692;9.020;2023-02-26T10:39:01;1.83;;;1.73;;
4057;SDS011;2044;48.692;9.020;2023-02-26T10:41:40;2.00;;;1.63;;
4057;SDS011;2044;48.692;9.020;2023-02-26T10:44:08;1.50;;;1.40;;
4057;SDS011;2044;48.692;9.020;2023-02-26T10:46:42;3.77;;;1.80;;
4057;SDS011;2044;48.692;9.020;2023-02-26T10:49:23;2.57;;;2.37;;
4057;SDS011;2044;48.692;9.020;2023-02-26T10:52:04;2.50;;;2.30;;
4057;SDS011;2044;48.692;9.020;2023-02-26T10:54:39;1.87;;;1.77;;
4057;SDS011;2044;48.692;9.020;2023-02-26T10:57:13;2.50;;;1.83;;
4057;SDS011;2044;48.692;9.020;2023-02-26T10:59:45;3.10;;;2.13;;
4057;SDS011;2044;48.692;9.020;2023-02-26T11:02:18;2.70;;;1.97;;
4057;SDS011;2044;48.692;9.020;2023-02-26T11:05:03;3.73;;;2.47;;
4057;SDS011;2044;48.692;9.020;2023-02-26T11:07:32;1.53;;;1.40;;
4057;SDS011;2044;48.692;9.020;2023-02-26T11:10:03;2.30;;;1.83;;
4057;SDS011;2044;48.692;9.020;2023-02-26T11:12:37;1.43;;;1.33;;
4057;SDS011;2044;48.692;9.020;2023-02-26T11:15:04;1.70;;;1.60;;
4057;SDS011;2044;48.692;9.020;2023-02-26T11:17:32;1.90;;;1.80;;
4057;SDS011;2044;48.692;9.020;2023-02-26T11:20:00;1.70;;;1.60;;
4057;SDS011;2044;48.692;9.020;2023-02-26T11:22:32;3.33;;;1.87;;
4057;SDS011;2044;48.692;9.020;2023-02-26T11:25:00;2.13;;;1.73;;
4057;SDS011;2044;48.692;9.020;2023-02-26T11:27:30;2.93;;;2.63;;
4057;SDS011;2044;48.692;9.020;2023-02-26T11:29:58;2.17;;;2.07;;
4057;SDS011;2044;48.692;9.020;2023-02-26T11:32:29;2.73;;;2.23;;
4057;SDS011;2044;48.692;9.020;2023-02-26T11:34:58;4.07;;;2.50;;
4057;SDS011;2044;48.692;9.020;2023-02-26T11:37:27;1.80;;;1.70;;
4057;SDS011;2044;48.692;9.020;2023-02-26T11:39:58;1.70;;;1.60;;
4057;SDS011;2044;48.692;9.020;2023-02-26T11:42:29;3.50;;;3.20;;
4057;SDS011;2044;48.692;9.020;2023-02-26T11:45:03;2.13;;;2.03;;
4057;SDS011;2044;48.692;9.020;2023-02-26T11:47:31;2.60;;;2.40;;
4057;SDS011;2044;48.692;9.020;2023-02-26T11:50:00;2.10;;;2.00;;
4057;SDS011;2044;48.692;9.020;2023-02-26T11:52:32;2.90;;;2.67;;
4057;SDS011;2044;48.692;9.020;2023-02-26T11:55:01;2.20;;;2.00;;
4057;SDS011;2044;48.692;9.020;2023-02-26T11:57:31;2.23;;;2.13;;
4057;SDS011;2044;48.692;9.020;2023-02-26T12:00:00;3.20;;;1.53;;
4057;SDS011;2044;48.692;9.020;2023-02-26T12:02:41;1.33;;;1.23;;
4057;SDS011;2044;48.692;9.020;2023-02-26T12:05:09;3.70;;;2.63;;
4057;SDS011;2044;48.692;9.020;2023-02-26T12:07:39;2.27;;;1.90;;
4057;SDS011;2044;48.692;9.020;2023-02-26T12:10:12;3.60;;;3.40;;
4057;SDS011;2044;48.692;9.020;2023-02-26T12:12:49;3.87;;;3.20;;
4057;SDS011;2044;48.692;9.020;2023-02-26T12:15:27;2.27;;;2.17;;
4057;SDS011;2044;48.692;9.020;2023-02-26T12:18:07;3.40;;;3.13;;
4057;SDS011;2044;48.692;9.020;2023-02-26T12:20:44;4.17;;;2.67;;
4057;SDS011;2044;48.692;9.020;2023-02-26T12:23:21;3.10;;;2.90;;
4057;SDS011;2044;48.692;9.020;2023-02-26T12:26:05;2.77;;;2.67;;
4057;SDS011;2044;48.692;9.020;2023-02-26T12:28:56;2.70;;;2.60;;
4057;SDS011;2044;48.692;9.020;2023-02-26T12:34:49;1.70;;;1.60;;
4057;SDS011;2044;48.692;9.020;2023-02-26T12:37:42;2.00;;;1.90;;
4057;SDS011;2044;48.692;9.020;2023-02-26T12:40:18;2.10;;;2.00;;
4057;SDS011;2044;48.692;9.020;2023-02-26T12:43:08;2.70;;;2.60;;
4057;SDS011;2044;48.692;9.020;2023-02-26T12:45:39;1.70;;;1.60;;
4057;SDS011;2044;48.692;9.020;2023-02-26T12:48:16;2.53;;;2.43;;
4057;SDS011;2044;48.692;9.020;2023-02-26T12:51:01;2.00;;;1.90;;
4057;SDS011;2044;48.692;9.020;2023-02-26T12:53:37;2.53;;;2.33;;
4057;SDS011;2044;48.692;9.020;2023-02-26T12:56:29;2.07;;;1.97;;
4057;SDS011;2044;48.692;9.020;2023-02-26T12:59:23;1.97;;;1.83;;
4057;SDS011;2044;48.692;9.020;2023-02-26T13:02:12;1.30;;;1.20;;
4057;SDS011;2044;48.692;9.020;2023-02-26T13:05:11;1.90;;;1.80;;
4057;SDS011;2044;48.692;9.020;2023-02-26T13:07:55;2.47;;;1.70;;
4057;SDS011;2044;48.692;9.020;2023-02-26T13:10:36;1.60;;;1.60;;
4057;SDS011;2044;48.692;9.020;2023-02-26T13:13:17;3.23;;;3.13;;
4057;SDS011;2044;48.692;9.020;2023-02-26T13:15:59;1.53;;;1.53;;
4057;SDS011;2044;48.692;9.020;2023-02-26T13:18:38;2.50;;;2.30;;
4057;SDS011;2044;48.692;9.020;2023-02-26T13:21:12;1.80;;;1.70;;
4057;SDS011;2044;48.692;9.020;2023-02-26T13:23:44;1.90;;;1.80;;
4057;SDS011;2044;48.692;9.020;2023-02-26T13:26:15;2.93;;;2.83;;
4057;SDS011;2044;48.692;9.020;2023-02-26T13:28:46;2.17;;;2.07;;
4057;SDS011;2044;48.692;9.020;2023-02-26T13:31:17;1.80;;;1.70;;
4057;SDS011;2044;48.692;9.020;2023-02-26T13:33:47;1.43;;;1.43;;
4057;SDS011;2044;48.692;9.020;2023-02-26T13:36:16;1.60;;;1.50;;
4057;SDS011;2044;48.692;9.020;2023-02-26T13:38:51;2.37;;;2.23;;
4057;SDS011;2044;48.692;9.020;2023-02-26T13:41:29;2.00;;;1.90;;
4057;SDS011;2044;48.692;9.020;2023-02-26T13:44:06;2.40;;;2.30;;
4057;SDS011;2044;48.692;9.020;2023-02-26T13:46:51;2.20;;;2.10;;
4057;SDS011;2044;48.692;9.020;2023-02-26T13:49:37;2.20;;;1.80;;
4057;SDS011;2044;48.692;9.020;2023-02-26T13:52:23;2.10;;;2.00;;
4057;SDS011;2044;48.692;9.020;2023-02-26T13:54:52;2.90;;;2.70;;
4057;SDS011;2044;48.692;9.020;2023-02-26T13:57:22;4.70;;;3.60;;
4057;SDS011;2044;48.692;9.020;2023-02-26T13:59:59;4.30;;;4.00;;
4057;SDS011;2044;48.692;9.020;2023-02-26T14:02:47;2.83;;;2.73;;
4057;SDS011;2044;48.692;9.020;2023-02-26T14:05:34;3.70;;;3.50;;
4057;SDS011;2044;48.692;9.020;2023-02-26T14:11:23;4.40;;;4.20;;
4057;SDS011;2044;48.692;9.020;2023-02-26T14:14:05;4.43;;;4.33;;
4057;SDS011;2044;48.692;9.020;2023-02-26T14:16:54;4.83;;;4.73;;
4057;SDS011;2044;48.692;9.020;2023-02-26T14:20:15;6.00;;;5.80;;
4057;SDS011;2044;48.692;9.020;2023-02-26T14:22:49;5.47;;;5.27;;
4057;SDS011;2044;48.692;9.020;2023-02-26T14:25:19;7.20;;;6.90;;
4057;SDS011;2044;48.692;9.020;2023-02-26T14:30:45;6.00;;;5.80;;
4057;SDS011;2044;48.692;9.020;2023-02-26T14:33:19;6.00;;;5.80;;
4057;SDS011;2044;48.692;9.020;2023-02-26T14:35:55;4.77;;;4.67;;
4057;SDS011;2044;48.692;9.020;2023-02-26T14:38:24;5.57;;;5.10;;
4057;SDS011;2044;48.692;9.020;2023-02-26T14:40:55;5.00;;;4.80;;
4057;SDS011;2044;48.692;9.020;2023-02-26T14:43:29;5.10;;;4.90;;
4057;SDS011;2044;48.692;9.020;2023-02-26T14:45:59;4.93;;;4.83;;
4057;SDS011;2044;48.692;9.020;2023-02-26T14:48:27;5.00;;;4.90;;
4057;SDS011;2044;48.692;9.020;2023-02-26T14:51:02;6.20;;;5.90;;
4057;SDS011;2044;48.692;9.020;2023-02-26T14:53:50;5.80;;;5.60;;
4057;SDS011;2044;48.692;9.020;2023-02-26T14:56:26;7.17;;;6.87;;
4057;SDS011;2044;48.692;9.020;2023-02-26T14:59:04;6.30;;;6.10;;
4057;SDS011;2044;48.692;9.020;2023-02-26T15:01:44;6.20;;;6.00;;
4057;SDS011;2044;48.692;9.020;2023-02-26T15:04:17;5.27;;;5.07;;
4057;SDS011;2044;48.692;9.020;2023-02-26T15:07:10;6.17;;;5.80;;
4057;SDS011;2044;48.692;9.020;2023-02-26T15:09:50;6.50;;;6.10;;
4057;SDS011;2044;48.692;9.020;2023-02-26T15:12:30;5.87;;;5.70;;
4057;SDS011;2044;48.692;9.020;2023-02-26T15:15:20;5.73;;;5.53;;
4057;SDS011;2044;48.692;9.020;2023-02-26T15:17:57;10.10;;;9.37;;
4057;SDS011;2044;48.692;9.020;2023-02-26T15:20:35;5.80;;;5.70;;
4057;SDS011;2044;48.692;9.020;2023-02-26T15:23:19;6.00;;;5.80;;
4057;SDS011;2044;48.692;9.020;2023-02-26T15:25:56;7.20;;;6.70;;
4057;SDS011;2044;48.692;9.020;2023-02-26T15:28:24;6.17;;;5.87;;
4057;SDS011;2044;48.692;9.020;2023-02-26T15:30:53;7.83;;;7.13;;
4057;SDS011;2044;48.692;9.020;2023-02-26T15:33:22;5.23;;;5.07;;
4057;SDS011;2044;48.692;9.020;2023-02-26T15:35:50;6.10;;;5.70;;
4057;SDS011;2044;48.692;9.020;2023-02-26T15:38:19;5.90;;;5.70;;
4057;SDS011;2044;48.692;9.020;2023-02-26T15:40:46;6.00;;;5.80;;
4057;SDS011;2044;48.692;9.020;2023-02-26T15:43:17;5.23;;;5.13;;
4057;SDS011;2044;48.692;9.020;2023-02-26T15:45:48;5.63;;;5.47;;
4057;SDS011;2044;48.692;9.020;2023-02-26T15:48:17;6.00;;;5.70;;
4057;SDS011;2044;48.692;9.020;2023-02-26T15:50:47;5.60;;;5.40;;
4057;SDS011;2044;48.692;9.020;2023-02-26T15:53:22;5.90;;;5.70;;
4057;SDS011;2044;48.692;9.020;2023-02-26T15:55:53;5.23;;;4.93;;
4057;SDS011;2044;48.692;9.020;2023-02-26T15:58:31;4.90;;;4.80;;